sensor_id;sensor_type;location;lat;lon;timestamp;P1;durP1;ratioP1;P2;durP2;ratioP2
14074;SDS011;12831;52.392;13.066;2023-06-26T00:02:21;10.77;;;9.02;;
14074;SDS011;12831;52.392;13.066;2023-06-26T00:04:47;12.65;;;8.98;;
14074;SDS011;12831;52.392;13.066;2023-06-26T00:07:13;10.65;;;8.88;;
14074;SDS011;12831;52.392;13.066;2023-06-26T00:09:39;9.95;;;8.70;;
14074;SDS011;12831;52.392;13.066;2023-06-26T00:12:11;11.52;;;9.55;;
14074;SDS011;12831;52.392;13.066;2023-06-26T00:14:37;11.55;;;9.25;;
14074;SDS011;12831;52.392;13.066;2023-06-26T00:17:03;15.00;;;9.38;;
14074;SDS011;12831;52.392;13.066;2023-06-26T00:19:29;11.00;;;8.82;;
14074;SDS011;12831;52.392;13.066;2023-06-26T00:21:54;11.82;;;9.02;;
14074;SDS011;12831;52.392;13.066;2023-06-26T00:24:20;12.88;;;9.48;;
14074;SDS011;12831;52.392;13.066;2023-06-26T00:26:47;13.05;;;9.75;;
14074;SDS011;12831;52.392;13.066;2023-06-26T00:29:13;10.48;;;9.38;;
14074;SDS011;12831;52.392;13.066;2023-06-26T00:31:39;15.57;;;10.13;;
14074;SDS011;12831;52.392;13.066;2023-06-26T00:34:06;13.73;;;10.02;;
14074;SDS011;12831;52.392;13.066;2023-06-26T00:36:32;12.45;;;9.07;;
14074;SDS011;12831;52.392;13.066;2023-06-26T00:38:58;13.70;;;9.90;;
14074;SDS011;12831;52.392;13.066;2023-06-26T00:41:24;11.18;;;9.35;;
14074;SDS011;12831;52.392;13.066;2023-06-26T00:43:50;11.65;;;9.73;;
14074;SDS011;12831;52.392;13.066;2023-06-26T00:46:16;12.02;;;9.65;;
14074;SDS011;12831;52.392;13.066;2023-06-26T00:48:43;11.85;;;9.95;;
14074;SDS011;12831;52.392;13.066;2023-06-26T00:51:11;12.23;;;10.07;;
14074;SDS011;12831;52.392;13.066;2023-06-26T00:53:37;13.50;;;10.68;;
14074;SDS011;12831;52.392;13.066;2023-06-26T00:56:04;13.90;;;11.23;;
14074;SDS011;12831;52.392;13.066;2023-06-26T00:58:30;13.43;;;10.57;;
14074;SDS011;12831;52.392;13.066;2023-06-26T01:00:56;13.25;;;10.30;;
14074;SDS011;12831;52.392;13.066;2023-06-26T01:03:23;13.13;;;9.63;;
14074;SDS011;12831;52.392;13.066;2023-06-26T01:05:50;10.68;;;9.57;;
14074;SDS011;12831;52.392;13.066;2023-06-26T01:08:17;12.02;;;10.80;;
14074;SDS011;12831;52.392;13.066;2023-06-26T01:10:43;13.77;;;10.45;;
14074;SDS011;12831;52.392;13.066;2023-06-26T01:13:09;12.95;;;10.48;;
14074;SDS011;12831;52.392;13.066;2023-06-26T01:15:35;15.77;;;11.60;;
14074;SDS011;12831;52.392;13.066;2023-06-26T01:18:01;11.88;;;10.48;;
14074;SDS011;12831;52.392;13.066;2023-06-26T01:20:30;11.95;;;10.65;;
14074;SDS011;12831;52.392;13.066;2023-06-26T01:23:02;13.93;;;11.32;;
14074;SDS011;12831;52.392;13.066;2023-06-26T01:25:32;15.07;;;11.30;;
14074;SDS011;12831;52.392;13.066;2023-06-26T01:28:10;13.02;;;10.45;;
14074;SDS011;12831;52.392;13.066;2023-06-26T01:30:42;11.65;;;10.45;;
14074;SDS011;12831;52.392;13.066;2023-06-26T01:33:08;12.57;;;10.65;;
14074;SDS011;12831;52.392;13.066;2023-06-26T01:35:34;17.90;;;11.45;;
14074;SDS011;12831;52.392;13.066;2023-06-26T01:38:14;14.52;;;11.00;;
14074;SDS011;12831;52.392;13.066;2023-06-26T01:40:41;13.35;;;11.68;;
14074;SDS011;12831;52.392;13.066;2023-06-26T01:43:08;18.15;;;12.15;;
14074;SDS011;12831;52.392;13.066;2023-06-26T01:45:36;15.10;;;11.35;;
14074;SDS011;12831;52.392;13.066;2023-06-26T01:48:02;14.55;;;11.38;;
14074;SDS011;12831;52.392;13.066;2023-06-26T01:50:30;15.52;;;11.95;;
14074;SDS011;12831;52.392;13.066;2023-06-26T01:55:51;13.07;;;11.35;;
14074;SDS011;12831;52.392;13.066;2023-06-26T01:58:19;13.38;;;10.98;;
14074;SDS011;12831;52.392;13.066;2023-06-26T02:00:47;15.30;;;11.52;;
14074;SDS011;12831;52.392;13.066;2023-06-26T02:03:13;13.50;;;11.63;;
14074;SDS011;12831;52.392;13.066;2023-06-26T02:05:39;15.57;;;10.43;;
14074;SDS011;12831;52.392;13.066;2023-06-26T02:08:08;14.75;;;11.15;;
14074;SDS011;12831;52.392;13.066;2023-06-26T02:10:34;12.45;;;10.90;;
14074;SDS011;12831;52.392;13.066;2023-06-26T02:13:00;11.82;;;10.48;;
14074;SDS011;12831;52.392;13.066;2023-06-26T02:15:27;12.55;;;11.25;;
14074;SDS011;12831;52.392;13.066;2023-06-26T02:17:53;12.27;;;10.90;;
14074;SDS011;12831;52.392;13.066;2023-06-26T02:20:19;14.00;;;11.95;;
14074;SDS011;12831;52.392;13.066;2023-06-26T02:22:44;15.35;;;10.93;;
14074;SDS011;12831;52.392;13.066;2023-06-26T02:25:10;13.13;;;11.45;;
14074;SDS011;12831;52.392;13.066;2023-06-26T02:27:38;16.17;;;10.50;;
14074;SDS011;12831;52.392;13.066;2023-06-26T02:30:04;12.63;;;11.38;;
14074;SDS011;12831;52.392;13.066;2023-06-26T02:32:30;14.00;;;12.55;;
14074;SDS011;12831;52.392;13.066;2023-06-26T02:34:56;13.68;;;11.60;;
14074;SDS011;12831;52.392;13.066;2023-06-26T02:37:22;13.48;;;11.00;;
14074;SDS011;12831;52.392;13.066;2023-06-26T02:39:47;13.63;;;11.82;;
14074;SDS011;12831;52.392;13.066;2023-06-26T02:42:14;12.48;;;10.55;;
14074;SDS011;12831;52.392;13.066;2023-06-26T02:44:39;12.27;;;10.60;;
14074;SDS011;12831;52.392;13.066;2023-06-26T02:47:05;13.20;;;11.15;;
14074;SDS011;12831;52.392;13.066;2023-06-26T02:49:31;12.18;;;10.88;;
14074;SDS011;12831;52.392;13.066;2023-06-26T02:51:57;14.18;;;11.40;;
14074;SDS011;12831;52.392;13.066;2023-06-26T02:54:23;14.10;;;10.95;;
14074;SDS011;12831;52.392;13.066;2023-06-26T02:56:49;11.57;;;9.60;;
14074;SDS011;12831;52.392;13.066;2023-06-26T02:59:15;12.10;;;10.70;;
14074;SDS011;12831;52.392;13.066;2023-06-26T03:01:40;12.65;;;10.20;;
14074;SDS011;12831;52.392;13.066;2023-06-26T03:04:06;12.25;;;10.73;;
14074;SDS011;12831;52.392;13.066;2023-06-26T03:06:32;12.50;;;10.88;;
14074;SDS011;12831;52.392;13.066;2023-06-26T03:08:58;13.70;;;10.13;;
14074;SDS011;12831;52.392;13.066;2023-06-26T03:11:24;12.68;;;10.30;;
14074;SDS011;12831;52.392;13.066;2023-06-26T03:13:50;11.80;;;10.38;;
14074;SDS011;12831;52.392;13.066;2023-06-26T03:16:16;15.27;;;10.48;;
14074;SDS011;12831;52.392;13.066;2023-06-26T03:18:41;17.13;;;10.40;;
14074;SDS011;12831;52.392;13.066;2023-06-26T03:21:08;16.00;;;11.65;;
14074;SDS011;12831;52.392;13.066;2023-06-26T03:23:36;14.70;;;11.30;;
14074;SDS011;12831;52.392;13.066;2023-06-26T03:26:02;20.65;;;10.98;;
14074;SDS011;12831;52.392;13.066;2023-06-26T03:28:28;18.65;;;10.88;;
14074;SDS011;12831;52.392;13.066;2023-06-26T03:30:53;14.73;;;10.05;;
14074;SDS011;12831;52.392;13.066;2023-06-26T03:33:19;17.17;;;10.27;;
14074;SDS011;12831;52.392;13.066;2023-06-26T03:35:45;12.40;;;9.88;;
14074;SDS011;12831;52.392;13.066;2023-06-26T03:38:11;14.65;;;9.32;;
14074;SDS011;12831;52.392;13.066;2023-06-26T03:40:37;12.13;;;9.55;;
14074;SDS011;12831;52.392;13.066;2023-06-26T03:43:03;12.80;;;9.68;;
14074;SDS011;12831;52.392;13.066;2023-06-26T03:45:29;12.23;;;9.90;;
14074;SDS011;12831;52.392;13.066;2023-06-26T03:47:55;14.95;;;9.65;;
14074;SDS011;12831;52.392;13.066;2023-06-26T03:50:21;11.90;;;9.35;;
14074;SDS011;12831;52.392;13.066;2023-06-26T03:52:47;13.25;;;8.77;;
14074;SDS011;12831;52.392;13.066;2023-06-26T03:55:13;13.23;;;9.95;;
14074;SDS011;12831;52.392;13.066;2023-06-26T03:57:39;15.70;;;9.90;;
14074;SDS011;12831;52.392;13.066;2023-06-26T04:00:05;17.63;;;10.73;;
14074;SDS011;12831;52.392;13.066;2023-06-26T04:02:34;10.38;;;8.63;;
14074;SDS011;12831;52.392;13.066;2023-06-26T04:05:00;12.18;;;10.57;;
14074;SDS011;12831;52.392;13.066;2023-06-26T04:07:26;16.23;;;11.23;;
14074;SDS011;12831;52.392;13.066;2023-06-26T04:09:52;12.95;;;10.00;;
14074;SDS011;12831;52.392;13.066;2023-06-26T04:12:18;14.48;;;9.68;;
14074;SDS011;12831;52.392;13.066;2023-06-26T04:14:44;11.68;;;10.15;;
14074;SDS011;12831;52.392;13.066;2023-06-26T04:17:10;11.68;;;9.38;;
14074;SDS011;12831;52.392;13.066;2023-06-26T04:19:36;14.73;;;10.18;;
14074;SDS011;12831;52.392;13.066;2023-06-26T04:22:03;10.75;;;9.35;;
14074;SDS011;12831;52.392;13.066;2023-06-26T04:24:29;12.57;;;9.57;;
14074;SDS011;12831;52.392;13.066;2023-06-26T04:26:54;11.00;;;8.82;;
14074;SDS011;12831;52.392;13.066;2023-06-26T04:29:25;14.75;;;10.50;;
14074;SDS011;12831;52.392;13.066;2023-06-26T04:31:51;10.30;;;9.30;;
14074;SDS011;12831;52.392;13.066;2023-06-26T04:34:17;13.77;;;10.52;;
14074;SDS011;12831;52.392;13.066;2023-06-26T04:36:43;12.02;;;9.70;;
14074;SDS011;12831;52.392;13.066;2023-06-26T04:39:13;9.93;;;8.75;;
14074;SDS011;12831;52.392;13.066;2023-06-26T04:41:40;10.38;;;8.52;;
14074;SDS011;12831;52.392;13.066;2023-06-26T04:44:06;9.57;;;8.30;;
14074;SDS011;12831;52.392;13.066;2023-06-26T04:46:32;10.15;;;7.90;;
14074;SDS011;12831;52.392;13.066;2023-06-26T04:48:58;11.43;;;8.50;;
14074;SDS011;12831;52.392;13.066;2023-06-26T04:51:24;9.25;;;8.07;;
14074;SDS011;12831;52.392;13.066;2023-06-26T04:53:52;10.00;;;7.97;;
14074;SDS011;12831;52.392;13.066;2023-06-26T04:56:18;11.45;;;8.75;;
14074;SDS011;12831;52.392;13.066;2023-06-26T04:58:44;10.30;;;7.40;;
14074;SDS011;12831;52.392;13.066;2023-06-26T05:01:10;11.40;;;8.55;;
14074;SDS011;12831;52.392;13.066;2023-06-26T05:03:36;10.98;;;7.75;;
14074;SDS011;12831;52.392;13.066;2023-06-26T05:06:02;11.13;;;7.68;;
14074;SDS011;12831;52.392;13.066;2023-06-26T05:08:34;8.02;;;7.03;;
14074;SDS011;12831;52.392;13.066;2023-06-26T05:11:00;10.45;;;7.90;;
14074;SDS011;12831;52.392;13.066;2023-06-26T05:13:26;8.50;;;7.05;;
14074;SDS011;12831;52.392;13.066;2023-06-26T05:15:52;10.07;;;7.68;;
14074;SDS011;12831;52.392;13.066;2023-06-26T05:18:18;8.63;;;6.57;;
14074;SDS011;12831;52.392;13.066;2023-06-26T05:20:45;11.02;;;8.73;;
14074;SDS011;12831;52.392;13.066;2023-06-26T05:23:12;10.68;;;8.27;;
14074;SDS011;12831;52.392;13.066;2023-06-26T05:25:38;9.68;;;7.10;;
14074;SDS011;12831;52.392;13.066;2023-06-26T05:28:05;12.20;;;7.97;;
14074;SDS011;12831;52.392;13.066;2023-06-26T05:30:31;14.45;;;8.55;;
14074;SDS011;12831;52.392;13.066;2023-06-26T05:33:00;13.30;;;8.82;;
14074;SDS011;12831;52.392;13.066;2023-06-26T05:35:30;12.80;;;8.02;;
14074;SDS011;12831;52.392;13.066;2023-06-26T05:37:57;12.68;;;7.45;;
14074;SDS011;12831;52.392;13.066;2023-06-26T05:40:24;8.13;;;7.22;;
14074;SDS011;12831;52.392;13.066;2023-06-26T05:42:51;8.60;;;7.05;;
14074;SDS011;12831;52.392;13.066;2023-06-26T05:45:18;8.00;;;7.20;;
14074;SDS011;12831;52.392;13.066;2023-06-26T05:47:44;6.90;;;6.20;;
14074;SDS011;12831;52.392;13.066;2023-06-26T05:50:11;9.02;;;7.25;;
14074;SDS011;12831;52.392;13.066;2023-06-26T05:52:38;7.80;;;6.93;;
14074;SDS011;12831;52.392;13.066;2023-06-26T05:55:05;9.77;;;6.57;;
14074;SDS011;12831;52.392;13.066;2023-06-26T05:57:33;8.02;;;6.00;;
14074;SDS011;12831;52.392;13.066;2023-06-26T06:00:01;8.82;;;6.90;;
14074;SDS011;12831;52.392;13.066;2023-06-26T06:02:28;8.07;;;7.20;;
14074;SDS011;12831;52.392;13.066;2023-06-26T06:04:57;7.45;;;6.20;;
14074;SDS011;12831;52.392;13.066;2023-06-26T06:07:23;11.07;;;7.28;;
14074;SDS011;12831;52.392;13.066;2023-06-26T06:09:49;6.95;;;6.25;;
14074;SDS011;12831;52.392;13.066;2023-06-26T06:12:17;8.73;;;6.75;;
14074;SDS011;12831;52.392;13.066;2023-06-26T06:14:43;7.40;;;6.68;;
14074;SDS011;12831;52.392;13.066;2023-06-26T06:17:13;9.10;;;5.70;;
14074;SDS011;12831;52.392;13.066;2023-06-26T06:19:39;8.48;;;5.63;;
14074;SDS011;12831;52.392;13.066;2023-06-26T06:22:07;8.63;;;6.47;;
14074;SDS011;12831;52.392;13.066;2023-06-26T06:24:33;6.25;;;5.03;;
14074;SDS011;12831;52.392;13.066;2023-06-26T06:27:00;8.57;;;6.35;;
14074;SDS011;12831;52.392;13.066;2023-06-26T06:29:26;9.13;;;5.63;;
14074;SDS011;12831;52.392;13.066;2023-06-26T06:31:53;6.88;;;5.15;;
14074;SDS011;12831;52.392;13.066;2023-06-26T06:34:20;8.43;;;5.53;;
14074;SDS011;12831;52.392;13.066;2023-06-26T06:36:47;12.40;;;4.82;;
14074;SDS011;12831;52.392;13.066;2023-06-26T06:39:14;6.57;;;5.13;;
14074;SDS011;12831;52.392;13.066;2023-06-26T06:44:38;8.18;;;6.03;;
14074;SDS011;12831;52.392;13.066;2023-06-26T06:47:06;6.40;;;5.80;;
14074;SDS011;12831;52.392;13.066;2023-06-26T06:49:34;9.60;;;5.57;;
14074;SDS011;12831;52.392;13.066;2023-06-26T06:52:00;6.45;;;5.13;;
14074;SDS011;12831;52.392;13.066;2023-06-26T06:54:26;10.15;;;6.35;;
14074;SDS011;12831;52.392;13.066;2023-06-26T06:56:54;8.25;;;5.90;;
14074;SDS011;12831;52.392;13.066;2023-06-26T06:59:27;8.80;;;7.07;;
14074;SDS011;12831;52.392;13.066;2023-06-26T07:01:53;8.73;;;5.95;;
14074;SDS011;12831;52.392;13.066;2023-06-26T07:04:20;9.38;;;6.03;;
14074;SDS011;12831;52.392;13.066;2023-06-26T07:06:46;10.00;;;6.82;;
14074;SDS011;12831;52.392;13.066;2023-06-26T07:09:12;10.25;;;6.22;;
14074;SDS011;12831;52.392;13.066;2023-06-26T07:11:42;7.22;;;5.35;;
14074;SDS011;12831;52.392;13.066;2023-06-26T07:14:08;7.13;;;6.03;;
14074;SDS011;12831;52.392;13.066;2023-06-26T07:16:34;7.28;;;5.90;;
14074;SDS011;12831;52.392;13.066;2023-06-26T07:19:02;7.03;;;4.90;;
14074;SDS011;12831;52.392;13.066;2023-06-26T07:21:28;7.00;;;5.78;;
14074;SDS011;12831;52.392;13.066;2023-06-26T07:23:56;8.50;;;5.53;;
14074;SDS011;12831;52.392;13.066;2023-06-26T07:26:24;6.47;;;5.47;;
14074;SDS011;12831;52.392;13.066;2023-06-26T07:29:10;9.10;;;6.03;;
14074;SDS011;12831;52.392;13.066;2023-06-26T07:31:37;8.10;;;6.47;;
14074;SDS011;12831;52.392;13.066;2023-06-26T07:34:03;6.70;;;5.55;;
14074;SDS011;12831;52.392;13.066;2023-06-26T07:36:30;5.43;;;4.78;;
14074;SDS011;12831;52.392;13.066;2023-06-26T07:39:02;8.70;;;5.07;;
14074;SDS011;12831;52.392;13.066;2023-06-26T07:44:16;7.53;;;5.13;;
14074;SDS011;12831;52.392;13.066;2023-06-26T07:46:46;9.15;;;5.63;;
14074;SDS011;12831;52.392;13.066;2023-06-26T07:49:13;6.80;;;6.05;;
14074;SDS011;12831;52.392;13.066;2023-06-26T07:51:39;5.57;;;4.45;;
14074;SDS011;12831;52.392;13.066;2023-06-26T07:54:05;7.88;;;5.85;;
14074;SDS011;12831;52.392;13.066;2023-06-26T07:56:35;7.22;;;5.15;;
14074;SDS011;12831;52.392;13.066;2023-06-26T07:59:17;6.18;;;4.32;;
14074;SDS011;12831;52.392;13.066;2023-06-26T08:01:44;6.15;;;4.63;;
14074;SDS011;12831;52.392;13.066;2023-06-26T08:04:10;10.02;;;5.00;;
14074;SDS011;12831;52.392;13.066;2023-06-26T08:06:37;5.38;;;3.90;;
14074;SDS011;12831;52.392;13.066;2023-06-26T08:09:07;6.70;;;3.70;;
14074;SDS011;12831;52.392;13.066;2023-06-26T08:11:55;4.97;;;3.83;;
14074;SDS011;12831;52.392;13.066;2023-06-26T08:14:21;4.43;;;3.58;;
14074;SDS011;12831;52.392;13.066;2023-06-26T08:16:48;4.97;;;3.75;;
14074;SDS011;12831;52.392;13.066;2023-06-26T08:19:14;5.13;;;2.95;;
14074;SDS011;12831;52.392;13.066;2023-06-26T08:21:41;5.63;;;3.70;;
14074;SDS011;12831;52.392;13.066;2023-06-26T08:24:08;4.88;;;3.70;;
14074;SDS011;12831;52.392;13.066;2023-06-26T08:26:35;6.75;;;3.78;;
14074;SDS011;12831;52.392;13.066;2023-06-26T08:29:02;5.88;;;3.72;;
14074;SDS011;12831;52.392;13.066;2023-06-26T08:31:38;5.00;;;3.60;;
14074;SDS011;12831;52.392;13.066;2023-06-26T08:34:08;5.95;;;4.50;;
14074;SDS011;12831;52.392;13.066;2023-06-26T08:36:34;5.78;;;4.32;;
14074;SDS011;12831;52.392;13.066;2023-06-26T08:39:03;7.47;;;3.47;;
14074;SDS011;12831;52.392;13.066;2023-06-26T08:41:38;4.68;;;3.30;;
14074;SDS011;12831;52.392;13.066;2023-06-26T08:44:04;5.55;;;3.22;;
14074;SDS011;12831;52.392;13.066;2023-06-26T08:46:31;4.88;;;4.00;;
14074;SDS011;12831;52.392;13.066;2023-06-26T08:49:03;6.07;;;3.80;;
14074;SDS011;12831;52.392;13.066;2023-06-26T08:51:32;6.82;;;3.05;;
14074;SDS011;12831;52.392;13.066;2023-06-26T08:54:02;3.30;;;2.78;;
14074;SDS011;12831;52.392;13.066;2023-06-26T08:56:32;9.23;;;3.78;;
14074;SDS011;12831;52.392;13.066;2023-06-26T08:59:00;3.95;;;3.05;;
14074;SDS011;12831;52.392;13.066;2023-06-26T09:01:27;5.72;;;3.00;;
14074;SDS011;12831;52.392;13.066;2023-06-26T09:03:54;4.22;;;3.08;;
14074;SDS011;12831;52.392;13.066;2023-06-26T09:06:20;3.60;;;2.67;;
14074;SDS011;12831;52.392;13.066;2023-06-26T09:08:47;6.65;;;3.03;;
14074;SDS011;12831;52.392;13.066;2023-06-26T09:11:14;3.50;;;2.70;;
14074;SDS011;12831;52.392;13.066;2023-06-26T09:13:40;4.18;;;2.45;;
14074;SDS011;12831;52.392;13.066;2023-06-26T09:16:07;6.95;;;2.80;;
14074;SDS011;12831;52.392;13.066;2023-06-26T09:18:34;5.25;;;3.00;;
14074;SDS011;12831;52.392;13.066;2023-06-26T09:21:00;3.88;;;2.95;;
14074;SDS011;12831;52.392;13.066;2023-06-26T09:23:30;4.88;;;3.40;;
14074;SDS011;12831;52.392;13.066;2023-06-26T09:25:58;5.38;;;3.33;;
14074;SDS011;12831;52.392;13.066;2023-06-26T09:28:25;4.43;;;3.20;;
14074;SDS011;12831;52.392;13.066;2023-06-26T09:30:51;9.52;;;3.28;;
14074;SDS011;12831;52.392;13.066;2023-06-26T09:33:19;4.88;;;2.72;;
14074;SDS011;12831;52.392;13.066;2023-06-26T09:35:47;4.40;;;2.95;;
14074;SDS011;12831;52.392;13.066;2023-06-26T09:38:14;4.95;;;3.08;;
14074;SDS011;12831;52.392;13.066;2023-06-26T09:40:47;3.65;;;3.08;;
14074;SDS011;12831;52.392;13.066;2023-06-26T09:43:14;3.70;;;2.70;;
14074;SDS011;12831;52.392;13.066;2023-06-26T09:45:42;6.10;;;3.25;;
14074;SDS011;12831;52.392;13.066;2023-06-26T09:48:09;4.25;;;3.10;;
14074;SDS011;12831;52.392;13.066;2023-06-26T09:50:35;5.85;;;2.92;;
14074;SDS011;12831;52.392;13.066;2023-06-26T09:53:09;4.38;;;2.78;;
14074;SDS011;12831;52.392;13.066;2023-06-26T09:55:36;4.47;;;2.85;;
14074;SDS011;12831;52.392;13.066;2023-06-26T09:58:03;6.03;;;3.15;;
14074;SDS011;12831;52.392;13.066;2023-06-26T10:00:30;4.53;;;3.65;;
14074;SDS011;12831;52.392;13.066;2023-06-26T10:02:57;4.18;;;3.03;;
14074;SDS011;12831;52.392;13.066;2023-06-26T10:05:24;5.45;;;3.22;;
14074;SDS011;12831;52.392;13.066;2023-06-26T10:07:51;3.88;;;2.70;;
14074;SDS011;12831;52.392;13.066;2023-06-26T10:10:18;6.35;;;3.45;;
14074;SDS011;12831;52.392;13.066;2023-06-26T10:12:47;4.47;;;3.40;;
14074;SDS011;12831;52.392;13.066;2023-06-26T10:15:14;5.53;;;3.20;;
14074;SDS011;12831;52.392;13.066;2023-06-26T10:17:43;5.35;;;2.95;;
14074;SDS011;12831;52.392;13.066;2023-06-26T10:20:09;7.05;;;4.63;;
14074;SDS011;12831;52.392;13.066;2023-06-26T10:22:45;4.85;;;3.78;;
14074;SDS011;12831;52.392;13.066;2023-06-26T10:25:18;4.03;;;3.20;;
14074;SDS011;12831;52.392;13.066;2023-06-26T10:27:53;4.80;;;3.22;;
14074;SDS011;12831;52.392;13.066;2023-06-26T10:30:22;4.40;;;3.22;;
14074;SDS011;12831;52.392;13.066;2023-06-26T10:32:54;4.13;;;2.78;;
14074;SDS011;12831;52.392;13.066;2023-06-26T10:35:22;5.40;;;3.22;;
14074;SDS011;12831;52.392;13.066;2023-06-26T10:37:50;5.43;;;3.88;;
14074;SDS011;12831;52.392;13.066;2023-06-26T10:40:26;5.97;;;3.20;;
14074;SDS011;12831;52.392;13.066;2023-06-26T10:48:13;4.90;;;2.87;;
14074;SDS011;12831;52.392;13.066;2023-06-26T10:50:40;4.47;;;3.42;;
14074;SDS011;12831;52.392;13.066;2023-06-26T10:55:49;5.18;;;3.60;;
14074;SDS011;12831;52.392;13.066;2023-06-26T10:58:40;4.05;;;2.90;;
14074;SDS011;12831;52.392;13.066;2023-06-26T11:03:35;5.30;;;3.22;;
14074;SDS011;12831;52.392;13.066;2023-06-26T11:06:13;3.45;;;2.80;;
14074;SDS011;12831;52.392;13.066;2023-06-26T11:08:49;5.03;;;3.33;;
14074;SDS011;12831;52.392;13.066;2023-06-26T11:14:36;5.90;;;3.15;;
14074;SDS011;12831;52.392;13.066;2023-06-26T11:17:02;5.18;;;3.60;;
14074;SDS011;12831;52.392;13.066;2023-06-26T11:19:29;4.15;;;3.50;;
14074;SDS011;12831;52.392;13.066;2023-06-26T11:21:58;4.30;;;3.40;;
14074;SDS011;12831;52.392;13.066;2023-06-26T11:24:25;12.75;;;4.03;;
14074;SDS011;12831;52.392;13.066;2023-06-26T11:26:52;5.07;;;3.65;;
14074;SDS011;12831;52.392;13.066;2023-06-26T11:29:18;4.10;;;3.45;;
14074;SDS011;12831;52.392;13.066;2023-06-26T11:31:49;4.38;;;3.53;;
14074;SDS011;12831;52.392;13.066;2023-06-26T11:34:24;5.55;;;3.47;;
14074;SDS011;12831;52.392;13.066;2023-06-26T11:36:51;4.82;;;4.07;;
14074;SDS011;12831;52.392;13.066;2023-06-26T11:39:18;4.78;;;3.65;;
14074;SDS011;12831;52.392;13.066;2023-06-26T11:41:48;7.22;;;3.90;;
14074;SDS011;12831;52.392;13.066;2023-06-26T11:44:14;5.77;;;3.73;;
14074;SDS011;12831;52.392;13.066;2023-06-26T11:46:45;6.25;;;3.70;;
14074;SDS011;12831;52.392;13.066;2023-06-26T11:49:11;4.93;;;3.55;;
14074;SDS011;12831;52.392;13.066;2023-06-26T11:51:39;6.88;;;4.05;;
14074;SDS011;12831;52.392;13.066;2023-06-26T11:54:06;8.25;;;4.15;;
14074;SDS011;12831;52.392;13.066;2023-06-26T11:56:33;5.32;;;4.00;;
14074;SDS011;12831;52.392;13.066;2023-06-26T11:59:01;4.57;;;3.72;;
14074;SDS011;12831;52.392;13.066;2023-06-26T12:01:32;4.50;;;3.60;;
14074;SDS011;12831;52.392;13.066;2023-06-26T12:06:26;5.20;;;3.88;;
14074;SDS011;12831;52.392;13.066;2023-06-26T12:08:52;6.18;;;3.90;;
14074;SDS011;12831;52.392;13.066;2023-06-26T12:11:19;6.50;;;4.07;;
14074;SDS011;12831;52.392;13.066;2023-06-26T12:13:47;7.95;;;4.25;;
14074;SDS011;12831;52.392;13.066;2023-06-26T12:16:14;5.05;;;4.15;;
14074;SDS011;12831;52.392;13.066;2023-06-26T12:18:40;5.32;;;4.10;;
14074;SDS011;12831;52.392;13.066;2023-06-26T12:21:06;4.85;;;4.10;;
14074;SDS011;12831;52.392;13.066;2023-06-26T12:23:33;5.07;;;4.20;;
14074;SDS011;12831;52.392;13.066;2023-06-26T12:26:15;4.97;;;4.25;;
14074;SDS011;12831;52.392;13.066;2023-06-26T12:28:44;6.20;;;4.60;;
14074;SDS011;12831;52.392;13.066;2023-06-26T12:31:28;6.70;;;4.90;;
14074;SDS011;12831;52.392;13.066;2023-06-26T12:33:54;6.07;;;4.40;;
14074;SDS011;12831;52.392;13.066;2023-06-26T12:36:20;4.72;;;3.97;;
14074;SDS011;12831;52.392;13.066;2023-06-26T12:38:49;4.95;;;4.00;;
14074;SDS011;12831;52.392;13.066;2023-06-26T12:44:22;5.65;;;4.00;;
14074;SDS011;12831;52.392;13.066;2023-06-26T12:46:49;9.05;;;5.10;;
14074;SDS011;12831;52.392;13.066;2023-06-26T12:49:16;8.90;;;4.72;;
14074;SDS011;12831;52.392;13.066;2023-06-26T12:51:57;5.53;;;4.50;;
14074;SDS011;12831;52.392;13.066;2023-06-26T12:54:23;6.03;;;4.85;;
14074;SDS011;12831;52.392;13.066;2023-06-26T12:56:51;5.35;;;4.60;;
14074;SDS011;12831;52.392;13.066;2023-06-26T12:59:18;5.78;;;4.47;;
14074;SDS011;12831;52.392;13.066;2023-06-26T13:01:51;5.40;;;3.97;;
14074;SDS011;12831;52.392;13.066;2023-06-26T13:04:23;6.30;;;4.43;;
14074;SDS011;12831;52.392;13.066;2023-06-26T13:06:50;6.32;;;3.95;;
14074;SDS011;12831;52.392;13.066;2023-06-26T13:09:18;5.60;;;4.53;;
14074;SDS011;12831;52.392;13.066;2023-06-26T13:14:39;5.03;;;4.32;;
14074;SDS011;12831;52.392;13.066;2023-06-26T13:17:05;5.20;;;4.25;;
14074;SDS011;12831;52.392;13.066;2023-06-26T13:22:01;5.07;;;3.83;;
14074;SDS011;12831;52.392;13.066;2023-06-26T13:24:27;5.47;;;4.00;;
14074;SDS011;12831;52.392;13.066;2023-06-26T13:26:54;4.97;;;4.15;;
14074;SDS011;12831;52.392;13.066;2023-06-26T13:29:20;6.03;;;4.32;;
14074;SDS011;12831;52.392;13.066;2023-06-26T13:31:46;8.88;;;4.13;;
14074;SDS011;12831;52.392;13.066;2023-06-26T13:34:24;6.38;;;4.32;;
14074;SDS011;12831;52.392;13.066;2023-06-26T13:36:53;6.80;;;4.60;;
14074;SDS011;12831;52.392;13.066;2023-06-26T13:39:20;4.15;;;3.47;;
14074;SDS011;12831;52.392;13.066;2023-06-26T13:41:56;6.22;;;4.68;;
14074;SDS011;12831;52.392;13.066;2023-06-26T13:44:24;5.05;;;4.32;;
14074;SDS011;12831;52.392;13.066;2023-06-26T13:47:07;5.97;;;3.88;;
14074;SDS011;12831;52.392;13.066;2023-06-26T13:49:35;7.32;;;4.20;;
14074;SDS011;12831;52.392;13.066;2023-06-26T13:52:02;7.32;;;4.18;;
14074;SDS011;12831;52.392;13.066;2023-06-26T13:54:28;5.05;;;3.92;;
14074;SDS011;12831;52.392;13.066;2023-06-26T13:56:54;4.78;;;4.20;;
14074;SDS011;12831;52.392;13.066;2023-06-26T14:01:51;5.10;;;4.45;;
14074;SDS011;12831;52.392;13.066;2023-06-26T14:04:18;10.45;;;4.43;;
14074;SDS011;12831;52.392;13.066;2023-06-26T14:06:44;16.20;;;5.60;;
14074;SDS011;12831;52.392;13.066;2023-06-26T14:09:25;14.38;;;5.00;;
14074;SDS011;12831;52.392;13.066;2023-06-26T14:15:12;70.05;;;7.43;;
14074;SDS011;12831;52.392;13.066;2023-06-26T14:17:43;11.27;;;5.57;;
14074;SDS011;12831;52.392;13.066;2023-06-26T14:29:13;4.35;;;2.53;;
14074;SDS011;12831;52.392;13.066;2023-06-26T14:31:43;10.85;;;3.55;;
14074;SDS011;12831;52.392;13.066;2023-06-26T14:34:14;8.45;;;3.95;;
14074;SDS011;12831;52.392;13.066;2023-06-26T14:36:58;6.40;;;3.90;;
14074;SDS011;12831;52.392;13.066;2023-06-26T14:39:33;9.40;;;4.03;;
14074;SDS011;12831;52.392;13.066;2023-06-26T14:50:49;15.18;;;5.50;;
14074;SDS011;12831;52.392;13.066;2023-06-26T14:53:32;8.73;;;6.05;;
14074;SDS011;12831;52.392;13.066;2023-06-26T14:55:59;8.40;;;5.18;;
14074;SDS011;12831;52.392;13.066;2023-06-26T14:58:27;10.27;;;5.80;;
14074;SDS011;12831;52.392;13.066;2023-06-26T15:01:02;9.73;;;5.30;;
14074;SDS011;12831;52.392;13.066;2023-06-26T15:03:44;8.07;;;5.32;;
14074;SDS011;12831;52.392;13.066;2023-06-26T15:06:11;10.32;;;5.43;;
14074;SDS011;12831;52.392;13.066;2023-06-26T15:08:41;6.75;;;5.13;;
14074;SDS011;12831;52.392;13.066;2023-06-26T15:11:08;7.68;;;5.30;;
14074;SDS011;12831;52.392;13.066;2023-06-26T15:13:37;9.80;;;5.38;;
14074;SDS011;12831;52.392;13.066;2023-06-26T15:16:24;10.27;;;6.47;;
14074;SDS011;12831;52.392;13.066;2023-06-26T15:19:05;8.45;;;5.25;;
14074;SDS011;12831;52.392;13.066;2023-06-26T15:21:39;13.95;;;6.03;;
14074;SDS011;12831;52.392;13.066;2023-06-26T15:30:13;7.75;;;5.45;;
14074;SDS011;12831;52.392;13.066;2023-06-26T15:32:57;9.20;;;5.70;;
14074;SDS011;12831;52.392;13.066;2023-06-26T15:35:46;7.47;;;5.05;;